sensor_id;sensor_type;location;lat;lon;timestamp;pressure;altitude;pressure_sealevel;temperature;humidity
36798;BME280;22748;8.426;99.512;2022-12-07T00:01:29;100606.22;;;27.45;71.78
36798;BME280;22748;8.426;99.512;2022-12-07T00:04:01;100619.44;;;27.46;71.67
36798;BME280;22748;8.426;99.512;2022-12-07T00:06:33;100617.38;;;27.42;71.42
36798;BME280;22748;8.426;99.512;2022-12-07T00:09:07;100603.09;;;27.41;71.50
36798;BME280;22748;8.426;99.512;2022-12-07T00:11:42;100616.31;;;27.43;71.86
36798;BME280;22748;8.426;99.512;2022-12-07T00:14:14;100619.81;;;27.43;71.59
36798;BME280;22748;8.426;99.512;2022-12-07T00:16:50;100626.88;;;27.44;71.74
36798;BME280;22748;8.426;99.512;2022-12-07T00:19:21;100626.69;;;27.46;72.05
36798;BME280;22748;8.426;99.512;2022-12-07T00:21:52;100629.72;;;27.43;71.77
36798;BME280;22748;8.426;99.512;2022-12-07T00:24:23;100635.50;;;27.40;71.88
36798;BME280;22748;8.426;99.512;2022-12-07T00:26:54;100639.19;;;27.39;72.03
36798;BME280;22748;8.426;99.512;2022-12-07T00:29:26;100640.88;;;27.40;72.21
36798;BME280;22748;8.426;99.512;2022-12-07T00:31:56;100642.50;;;27.41;72.55
36798;BME280;22748;8.426;99.512;2022-12-07T00:34:28;100644.19;;;27.42;72.28
36798;BME280;22748;8.426;99.512;2022-12-07T00:36:59;100654.50;;;27.45;72.34
36798;BME280;22748;8.426;99.512;2022-12-07T00:39:29;100654.69;;;27.43;72.61
36798;BME280;22748;8.426;99.512;2022-12-07T00:42:02;100652.88;;;27.44;72.80
36798;BME280;22748;8.426;99.512;2022-12-07T00:44:33;100665.22;;;27.45;72.87
36798;BME280;22748;8.426;99.512;2022-12-07T00:47:05;100670.59;;;27.45;73.10
36798;BME280;22748;8.426;99.512;2022-12-07T00:49:37;100674.69;;;27.41;73.47
36798;BME280;22748;8.426;99.512;2022-12-07T00:52:09;100685.03;;;27.44;73.00
36798;BME280;22748;8.426;99.512;2022-12-07T00:54:41;100681.31;;;27.45;73.47
36798;BME280;22748;8.426;99.512;2022-12-07T00:57:12;100684.63;;;27.47;73.15
36798;BME280;22748;8.426;99.512;2022-12-07T00:59:44;100686.28;;;27.48;73.55
36798;BME280;22748;8.426;99.512;2022-12-07T01:02:15;100682.59;;;27.49;73.10
36798;BME280;22748;8.426;99.512;2022-12-07T01:04:45;100694.97;;;27.50;73.01
36798;BME280;22748;8.426;99.512;2022-12-07T01:07:15;100697.44;;;27.52;73.61
36798;BME280;22748;8.426;99.512;2022-12-07T01:09:45;100699.94;;;27.53;73.23
36798;BME280;22748;8.426;99.512;2022-12-07T01:12:16;100704.06;;;27.56;73.74
36798;BME280;22748;8.426;99.512;2022-12-07T01:14:47;100703.25;;;27.55;73.83
36798;BME280;22748;8.426;99.512;2022-12-07T01:17:19;100705.94;;;27.55;73.49
36798;BME280;22748;8.426;99.512;2022-12-07T01:19:50;100709.88;;;27.59;73.95
36798;BME280;22748;8.426;99.512;2022-12-07T01:22:21;100712.56;;;27.59;73.58
36798;BME280;22748;8.426;99.512;2022-12-07T01:24:52;100713.19;;;27.61;74.16
36798;BME280;22748;8.426;99.512;2022-12-07T01:27:23;100722.88;;;27.62;73.78
36798;BME280;22748;8.426;99.512;2022-12-07T01:29:53;100725.38;;;27.64;73.83
36798;BME280;22748;8.426;99.512;2022-12-07T01:32:25;100728.69;;;27.66;73.90
36798;BME280;22748;8.426;99.512;2022-12-07T01:34:57;100741.72;;;27.69;74.04
36798;BME280;22748;8.426;99.512;2022-12-07T01:37:27;100735.09;;;27.72;74.01
36798;BME280;22748;8.426;99.512;2022-12-07T01:39:59;100733.88;;;27.74;74.39
36798;BME280;22748;8.426;99.512;2022-12-07T01:42:31;100741.34;;;27.79;74.12
36798;BME280;22748;8.426;99.512;2022-12-07T01:48:03;100756.66;;;27.85;74.30
36798;BME280;22748;8.426;99.512;2022-12-07T01:50:36;100752.78;;;27.87;74.25
36798;BME280;22748;8.426;99.512;2022-12-07T01:53:10;100750.91;;;27.88;74.13
36798;BME280;22748;8.426;99.512;2022-12-07T01:55:43;100753.41;;;27.89;73.60
36798;BME280;22748;8.426;99.512;2022-12-07T01:58:17;100760.88;;;27.94;74.64
36798;BME280;22748;8.426;99.512;2022-12-07T02:00:49;100766.47;;;27.99;74.44
36798;BME280;22748;8.426;99.512;2022-12-07T02:03:21;100763.34;;;28.02;73.88
36798;BME280;22748;8.426;99.512;2022-12-07T02:05:54;100753.88;;;28.06;74.13
36798;BME280;22748;8.426;99.512;2022-12-07T02:08:24;100749.38;;;28.07;73.71
36798;BME280;22748;8.426;99.512;2022-12-07T02:10:55;100748.94;;;28.10;73.40
36798;BME280;22748;8.426;99.512;2022-12-07T02:13:30;100751.44;;;28.12;73.50
36798;BME280;22748;8.426;99.512;2022-12-07T02:16:12;100748.16;;;28.16;73.45
36798;BME280;22748;8.426;99.512;2022-12-07T02:18:58;100752.09;;;28.20;72.62
36798;BME280;22748;8.426;99.512;2022-12-07T02:21:39;100744.44;;;28.24;72.84
36798;BME280;22748;8.426;99.512;2022-12-07T02:24:24;100741.38;;;28.27;72.84
36798;BME280;22748;8.426;99.512;2022-12-07T02:30:05;100736.41;;;28.37;72.68
36798;BME280;22748;8.426;99.512;2022-12-07T02:32:43;100736.66;;;28.42;72.59
36798;BME280;22748;8.426;99.512;2022-12-07T02:35:20;100733.53;;;28.45;72.23
36798;BME280;22748;8.426;99.512;2022-12-07T02:37:59;100735.22;;;28.46;72.91
36798;BME280;22748;8.426;99.512;2022-12-07T02:40:35;100738.34;;;28.50;72.39
36798;BME280;22748;8.426;99.512;2022-12-07T02:43:10;100737.50;;;28.49;72.34
36798;BME280;22748;8.426;99.512;2022-12-07T02:45:45;100728.44;;;28.50;71.91
36798;BME280;22748;8.426;99.512;2022-12-07T02:48:17;100733.59;;;28.52;71.70
36798;BME280;22748;8.426;99.512;2022-12-07T02:50:50;100727.41;;;28.51;71.91
36798;BME280;22748;8.426;99.512;2022-12-07T02:53:34;100731.72;;;28.52;71.67
36798;BME280;22748;8.426;99.512;2022-12-07T02:56:13;100726.59;;;28.58;71.01
36798;BME280;22748;8.426;99.512;2022-12-07T02:58:58;100727.22;;;28.60;71.13
36798;BME280;22748;8.426;99.512;2022-12-07T03:01:39;100729.28;;;28.64;71.15
36798;BME280;22748;8.426;99.512;2022-12-07T03:04:23;100722.66;;;28.67;70.98
36798;BME280;22748;8.426;99.512;2022-12-07T03:07:03;100720.19;;;28.72;70.89
36798;BME280;22748;8.426;99.512;2022-12-07T03:09:40;100718.09;;;28.74;70.83
36798;BME280;22748;8.426;99.512;2022-12-07T03:12:18;100711.72;;;28.75;70.23
36798;BME280;22748;8.426;99.512;2022-12-07T03:15:02;100709.66;;;28.77;69.66
36798;BME280;22748;8.426;99.512;2022-12-07T03:17:41;100702.84;;;28.81;69.56
36798;BME280;22748;8.426;99.512;2022-12-07T03:20:14;100705.28;;;28.89;69.31
36798;BME280;22748;8.426;99.512;2022-12-07T03:22:50;100700.13;;;28.95;69.36
36798;BME280;22748;8.426;99.512;2022-12-07T03:25:20;100706.13;;;28.97;68.85
36798;BME280;22748;8.426;99.512;2022-12-07T03:27:55;100700.75;;;29.03;68.94
36798;BME280;22748;8.426;99.512;2022-12-07T03:30:29;100698.28;;;29.15;68.92
36798;BME280;22748;8.426;99.512;2022-12-07T03:33:09;100708.19;;;29.21;68.37
36798;BME280;22748;8.426;99.512;2022-12-07T03:35:43;100707.78;;;29.24;68.00
36798;BME280;22748;8.426;99.512;2022-12-07T03:38:17;100706.13;;;29.23;67.35
36798;BME280;22748;8.426;99.512;2022-12-07T03:40:52;100704.47;;;29.22;67.35
36798;BME280;22748;8.426;99.512;2022-12-07T03:43:26;100696.00;;;29.25;67.41
36798;BME280;22748;8.426;99.512;2022-12-07T03:46:07;100699.28;;;29.27;66.60
36798;BME280;22748;8.426;99.512;2022-12-07T03:48:44;100694.31;;;29.31;66.79
36798;BME280;22748;8.426;99.512;2022-12-07T03:51:21;100685.63;;;29.36;66.60
36798;BME280;22748;8.426;99.512;2022-12-07T03:53:57;100680.84;;;29.44;66.59
36798;BME280;22748;8.426;99.512;2022-12-07T03:56:30;100677.09;;;29.52;65.68
36798;BME280;22748;8.426;99.512;2022-12-07T03:59:01;100667.75;;;29.54;65.53
36798;BME280;22748;8.426;99.512;2022-12-07T04:01:33;100674.16;;;29.60;65.89
36798;BME280;22748;8.426;99.512;2022-12-07T04:04:05;100663.16;;;29.68;65.69
36798;BME280;22748;8.426;99.512;2022-12-07T04:06:35;100658.81;;;29.74;65.29
36798;BME280;22748;8.426;99.512;2022-12-07T04:09:06;100658.78;;;29.81;65.53
36798;BME280;22748;8.426;99.512;2022-12-07T04:11:37;100648.81;;;29.88;65.31
36798;BME280;22748;8.426;99.512;2022-12-07T04:14:09;100637.59;;;29.91;64.44
36798;BME280;22748;8.426;99.512;2022-12-07T04:16:51;100636.75;;;29.97;64.60
36798;BME280;22748;8.426;99.512;2022-12-07T04:19:25;100629.44;;;30.04;64.85
36798;BME280;22748;8.426;99.512;2022-12-07T04:21:55;100618.81;;;30.09;64.85
36798;BME280;22748;8.426;99.512;2022-12-07T04:24:26;100613.44;;;30.09;63.94
36798;BME280;22748;8.426;99.512;2022-12-07T04:26:58;100615.09;;;30.10;63.75
36798;BME280;22748;8.426;99.512;2022-12-07T04:29:27;100624.19;;;30.16;63.67
36798;BME280;22748;8.426;99.512;2022-12-07T04:31:58;100620.00;;;30.20;63.55
36798;BME280;22748;8.426;99.512;2022-12-07T04:34:31;100605.91;;;30.25;62.93
36798;BME280;22748;8.426;99.512;2022-12-07T04:37:02;100602.78;;;30.28;63.19
36798;BME280;22748;8.426;99.512;2022-12-07T04:39:33;100597.19;;;30.29;62.47
36798;BME280;22748;8.426;99.512;2022-12-07T04:42:04;100592.16;;;30.33;62.51
36798;BME280;22748;8.426;99.512;2022-12-07T04:44:38;100588.59;;;30.39;62.54
36798;BME280;22748;8.426;99.512;2022-12-07T04:47:11;100580.53;;;30.39;62.87
36798;BME280;22748;8.426;99.512;2022-12-07T04:49:43;100563.09;;;30.42;62.10
36798;BME280;22748;8.426;99.512;2022-12-07T04:52:15;100561.38;;;30.47;62.37
36798;BME280;22748;8.426;99.512;2022-12-07T04:54:45;100558.03;;;30.52;62.13
36798;BME280;22748;8.426;99.512;2022-12-07T04:57:16;100550.94;;;30.58;62.37
36798;BME280;22748;8.426;99.512;2022-12-07T04:59:47;100548.38;;;30.63;61.80
36798;BME280;22748;8.426;99.512;2022-12-07T05:02:20;100542.09;;;30.69;61.79
36798;BME280;22748;8.426;99.512;2022-12-07T05:04:52;100539.75;;;30.72;61.10
36798;BME280;22748;8.426;99.512;2022-12-07T05:07:24;100533.13;;;30.75;61.29
36798;BME280;22748;8.426;99.512;2022-12-07T05:09:56;100516.94;;;30.75;61.71
36798;BME280;22748;8.426;99.512;2022-12-07T05:12:25;100520.06;;;30.72;62.48
36798;BME280;22748;8.426;99.512;2022-12-07T05:14:57;100511.78;;;30.73;61.51
36798;BME280;22748;8.426;99.512;2022-12-07T05:17:28;100514.25;;;30.75;61.85
36798;BME280;22748;8.426;99.512;2022-12-07T05:20:01;100506.16;;;30.75;60.55
36798;BME280;22748;8.426;99.512;2022-12-07T05:22:32;100496.41;;;30.74;60.81
36798;BME280;22748;8.426;99.512;2022-12-07T05:25:03;100498.44;;;30.79;61.26
36798;BME280;22748;8.426;99.512;2022-12-07T05:27:33;100493.44;;;30.82;60.97
36798;BME280;22748;8.426;99.512;2022-12-07T05:30:04;100490.91;;;30.87;61.28
36798;BME280;22748;8.426;99.512;2022-12-07T05:32:35;100488.44;;;30.86;61.03
36798;BME280;22748;8.426;99.512;2022-12-07T05:35:08;100485.34;;;30.82;61.07
36798;BME280;22748;8.426;99.512;2022-12-07T05:37:39;100478.88;;;30.83;60.78
36798;BME280;22748;8.426;99.512;2022-12-07T05:40:10;100468.50;;;30.87;60.73
36798;BME280;22748;8.426;99.512;2022-12-07T05:42:42;100466.19;;;30.90;60.69
36798;BME280;22748;8.426;99.512;2022-12-07T05:45:13;100467.22;;;30.89;60.85
36798;BME280;22748;8.426;99.512;2022-12-07T05:47:44;100463.03;;;30.93;60.33
36798;BME280;22748;8.426;99.512;2022-12-07T05:50:16;100448.44;;;31.01;60.54
36798;BME280;22748;8.426;99.512;2022-12-07T05:52:49;100450.16;;;30.95;60.17
36798;BME280;22748;8.426;99.512;2022-12-07T05:55:20;100451.34;;;31.00;60.46
36798;BME280;22748;8.426;99.512;2022-12-07T05:57:51;100450.88;;;31.03;59.64
36798;BME280;22748;8.426;99.512;2022-12-07T06:00:34;100438.75;;;31.12;59.43
36798;BME280;22748;8.426;99.512;2022-12-07T06:03:03;100432.41;;;31.18;58.31
36798;BME280;22748;8.426;99.512;2022-12-07T06:05:36;100429.00;;;31.23;58.49
36798;BME280;22748;8.426;99.512;2022-12-07T06:08:05;100425.66;;;31.27;57.82
36798;BME280;22748;8.426;99.512;2022-12-07T06:10:37;100423.53;;;31.29;57.35
36798;BME280;22748;8.426;99.512;2022-12-07T06:13:08;100417.09;;;31.30;57.92
36798;BME280;22748;8.426;99.512;2022-12-07T06:15:39;100415.19;;;31.31;58.29
36798;BME280;22748;8.426;99.512;2022-12-07T06:18:11;100413.78;;;31.28;58.14
36798;BME280;22748;8.426;99.512;2022-12-07T06:20:44;100408.50;;;31.33;58.88
36798;BME280;22748;8.426;99.512;2022-12-07T06:23:15;100400.56;;;31.39;58.94
36798;BME280;22748;8.426;99.512;2022-12-07T06:25:47;100396.97;;;31.45;58.69
36798;BME280;22748;8.426;99.512;2022-12-07T06:28:17;100394.28;;;31.45;58.36
36798;BME280;22748;8.426;99.512;2022-12-07T06:30:57;100392.50;;;31.50;58.10
36798;BME280;22748;8.426;99.512;2022-12-07T06:33:29;100377.50;;;31.54;57.98
36798;BME280;22748;8.426;99.512;2022-12-07T06:36:03;100377.88;;;31.58;58.00
36798;BME280;22748;8.426;99.512;2022-12-07T06:38:34;100368.69;;;31.59;57.96
36798;BME280;22748;8.426;99.512;2022-12-07T06:41:03;100364.97;;;31.60;58.06
36798;BME280;22748;8.426;99.512;2022-12-07T06:43:35;100359.56;;;31.60;56.96
36798;BME280;22748;8.426;99.512;2022-12-07T06:46:06;100358.25;;;31.63;57.08
36798;BME280;22748;8.426;99.512;2022-12-07T06:48:37;100355.66;;;31.68;56.97
36798;BME280;22748;8.426;99.512;2022-12-07T06:51:10;100337.72;;;31.73;57.35
36798;BME280;22748;8.426;99.512;2022-12-07T06:53:41;100340.06;;;31.82;57.24
36798;BME280;22748;8.426;99.512;2022-12-07T06:56:17;100328.78;;;31.85;57.19
36798;BME280;22748;8.426;99.512;2022-12-07T06:58:49;100324.78;;;31.87;56.53
36798;BME280;22748;8.426;99.512;2022-12-07T07:01:19;100320.94;;;31.71;56.63
36798;BME280;22748;8.426;99.512;2022-12-07T07:03:50;100312.47;;;31.68;56.84
36798;BME280;22748;8.426;99.512;2022-12-07T07:06:23;100309.06;;;31.72;56.82
36798;BME280;22748;8.426;99.512;2022-12-07T07:08:54;100304.38;;;31.80;57.12
36798;BME280;22748;8.426;99.512;2022-12-07T07:11:23;100300.47;;;31.87;56.93
36798;BME280;22748;8.426;99.512;2022-12-07T07:13:53;100294.50;;;31.97;56.82
36798;BME280;22748;8.426;99.512;2022-12-07T07:16:31;100291.09;;;32.02;56.47
36798;BME280;22748;8.426;99.512;2022-12-07T07:19:00;100290.38;;;32.06;56.34
36798;BME280;22748;8.426;99.512;2022-12-07T07:21:33;100291.91;;;32.02;56.79
36798;BME280;22748;8.426;99.512;2022-12-07T07:24:04;100287.19;;;32.09;56.22
36798;BME280;22748;8.426;99.512;2022-12-07T07:26:34;100281.78;;;32.09;56.69
36798;BME280;22748;8.426;99.512;2022-12-07T07:29:05;100277.47;;;32.08;56.99
36798;BME280;22748;8.426;99.512;2022-12-07T07:31:34;100273.94;;;32.08;57.26
36798;BME280;22748;8.426;99.512;2022-12-07T07:34:06;100278.50;;;32.07;57.54
36798;BME280;22748;8.426;99.512;2022-12-07T07:36:38;100274.75;;;32.08;57.49
36798;BME280;22748;8.426;99.512;2022-12-07T07:39:09;100273.09;;;32.07;57.38
36798;BME280;22748;8.426;99.512;2022-12-07T07:41:41;100270.41;;;32.07;57.47
36798;BME280;22748;8.426;99.512;2022-12-07T07:44:11;100273.69;;;32.09;57.24
36798;BME280;22748;8.426;99.512;2022-12-07T07:46:44;100274.63;;;32.03;57.34
36798;BME280;22748;8.426;99.512;2022-12-07T07:49:15;100278.28;;;31.97;57.66
36798;BME280;22748;8.426;99.512;2022-12-07T07:51:48;100266.91;;;31.95;57.51
36798;BME280;22748;8.426;99.512;2022-12-07T07:54:21;100270.66;;;31.94;57.92
36798;BME280;22748;8.426;99.512;2022-12-07T07:56:55;100256.09;;;31.95;57.80
36798;BME280;22748;8.426;99.512;2022-12-07T07:59:25;100255.84;;;31.96;58.42
36798;BME280;22748;8.426;99.512;2022-12-07T08:01:55;100260.00;;;31.99;59.05
36798;BME280;22748;8.426;99.512;2022-12-07T08:04:24;100268.44;;;32.03;59.46
36798;BME280;22748;8.426;99.512;2022-12-07T08:06:58;100266.53;;;32.03;59.95
36798;BME280;22748;8.426;99.512;2022-12-07T08:09:28;100268.09;;;31.99;59.94
36798;BME280;22748;8.426;99.512;2022-12-07T08:11:58;100267.94;;;31.94;60.79
36798;BME280;22748;8.426;99.512;2022-12-07T08:14:28;100261.38;;;31.90;61.31
36798;BME280;22748;8.426;99.512;2022-12-07T08:16:58;100267.25;;;31.87;62.42
36798;BME280;22748;8.426;99.512;2022-12-07T08:19:29;100270.19;;;31.85;63.04
36798;BME280;22748;8.426;99.512;2022-12-07T08:22:02;100275.28;;;31.82;63.04
36798;BME280;22748;8.426;99.512;2022-12-07T08:24:34;100268.69;;;31.77;63.21
36798;BME280;22748;8.426;99.512;2022-12-07T08:27:03;100271.97;;;31.80;63.90
36798;BME280;22748;8.426;99.512;2022-12-07T08:29:34;100276.53;;;31.79;63.99
36798;BME280;22748;8.426;99.512;2022-12-07T08:32:05;100276.22;;;31.75;63.50
36798;BME280;22748;8.426;99.512;2022-12-07T08:34:35;100277.84;;;31.76;63.58
36798;BME280;22748;8.426;99.512;2022-12-07T08:37:06;100275.72;;;31.78;63.88
36798;BME280;22748;8.426;99.512;2022-12-07T08:39:36;100279.50;;;31.77;64.81
36798;BME280;22748;8.426;99.512;2022-12-07T08:42:05;100287.09;;;31.81;65.14
36798;BME280;22748;8.426;99.512;2022-12-07T08:44:35;100286.28;;;31.80;65.21
36798;BME280;22748;8.426;99.512;2022-12-07T08:47:06;100289.81;;;31.81;64.84
36798;BME280;22748;8.426;99.512;2022-12-07T08:49:39;100293.91;;;31.83;64.98
36798;BME280;22748;8.426;99.512;2022-12-07T08:52:12;100272.78;;;31.80;65.21
36798;BME280;22748;8.426;99.512;2022-12-07T08:54:43;100279.00;;;31.81;65.07
36798;BME280;22748;8.426;99.512;2022-12-07T08:57:15;100269.03;;;31.81;65.13
36798;BME280;22748;8.426;99.512;2022-12-07T08:59:46;100274.19;;;31.83;65.20
36798;BME280;22748;8.426;99.512;2022-12-07T09:02:17;100280.66;;;31.82;65.05
36798;BME280;22748;8.426;99.512;2022-12-07T09:04:47;100280.66;;;31.82;64.99
36798;BME280;22748;8.426;99.512;2022-12-07T09:07:18;100284.91;;;31.77;64.81
36798;BME280;22748;8.426;99.512;2022-12-07T09:09:48;100285.94;;;31.76;64.72
36798;BME280;22748;8.426;99.512;2022-12-07T09:12:19;100297.31;;;31.78;64.75
36798;BME280;22748;8.426;99.512;2022-12-07T09:14:48;100301.44;;;31.81;65.04
36798;BME280;22748;8.426;99.512;2022-12-07T09:17:19;100307.66;;;31.82;65.00
36798;BME280;22748;8.426;99.512;2022-12-07T09:19:51;100315.53;;;31.71;66.37
36798;BME280;22748;8.426;99.512;2022-12-07T09:22:22;100330.56;;;31.67;67.41
36798;BME280;22748;8.426;99.512;2022-12-07T09:24:52;100327.16;;;31.60;67.48
36798;BME280;22748;8.426;99.512;2022-12-07T09:27:22;100331.50;;;31.61;67.27
36798;BME280;22748;8.426;99.512;2022-12-07T09:29:54;100320.09;;;31.59;67.30
36798;BME280;22748;8.426;99.512;2022-12-07T09:32:23;100315.53;;;31.60;67.17
36798;BME280;22748;8.426;99.512;2022-12-07T09:34:53;100318.13;;;31.54;66.19
36798;BME280;22748;8.426;99.512;2022-12-07T09:37:26;100312.63;;;31.49;65.41
36798;BME280;22748;8.426;99.512;2022-12-07T09:39:57;100304.63;;;31.43;65.74
36798;BME280;22748;8.426;99.512;2022-12-07T09:42:32;100295.47;;;31.44;66.06
36798;BME280;22748;8.426;99.512;2022-12-07T09:45:11;100294.66;;;31.43;66.07
36798;BME280;22748;8.426;99.512;2022-12-07T09:47:50;100296.53;;;31.43;66.15
36798;BME280;22748;8.426;99.512;2022-12-07T09:50:22;100293.84;;;31.43;65.87
36798;BME280;22748;8.426;99.512;2022-12-07T09:53:05;100295.06;;;31.40;65.61
36798;BME280;22748;8.426;99.512;2022-12-07T09:55:37;100298.03;;;31.39;65.98
36798;BME280;22748;8.426;99.512;2022-12-07T09:58:13;100302.03;;;31.36;65.90
36798;BME280;22748;8.426;99.512;2022-12-07T10:00:46;100295.19;;;31.33;65.79
36798;BME280;22748;8.426;99.512;2022-12-07T10:03:18;100291.91;;;31.31;66.00
36798;BME280;22748;8.426;99.512;2022-12-07T10:05:53;100308.34;;;31.30;66.24
36798;BME280;22748;8.426;99.512;2022-12-07T10:08:25;100315.84;;;31.28;66.32
36798;BME280;22748;8.426;99.512;2022-12-07T10:10:57;100323.34;;;31.26;66.47
36798;BME280;22748;8.426;99.512;2022-12-07T10:13:36;100334.38;;;31.24;66.28
36798;BME280;22748;8.426;99.512;2022-12-07T10:16:32;100328.97;;;31.24;66.62
36798;BME280;22748;8.426;99.512;2022-12-07T10:19:21;100339.16;;;31.22;66.54
36798;BME280;22748;8.426;99.512;2022-12-07T10:22:07;100339.06;;;31.17;66.78
36798;BME280;22748;8.426;99.512;2022-12-07T10:24:42;100348.56;;;31.20;66.92
36798;BME280;22748;8.426;99.512;2022-12-07T10:27:30;100353.13;;;31.19;67.03
36798;BME280;22748;8.426;99.512;2022-12-07T10:30:12;100353.94;;;31.20;67.09
36798;BME280;22748;8.426;99.512;2022-12-07T10:32:43;100350.44;;;31.19;67.32
36798;BME280;22748;8.426;99.512;2022-12-07T10:35:23;100347.16;;;31.17;67.58
36798;BME280;22748;8.426;99.512;2022-12-07T10:37:56;100353.56;;;31.16;67.32
36798;BME280;22748;8.426;99.512;2022-12-07T10:40:32;100354.66;;;31.15;67.35
36798;BME280;22748;8.426;99.512;2022-12-07T10:43:13;100357.34;;;31.15;67.27
36798;BME280;22748;8.426;99.512;2022-12-07T10:48:58;100351.34;;;31.13;67.41
36798;BME280;22748;8.426;99.512;2022-12-07T10:51:38;100362.63;;;31.10;67.37
36798;BME280;22748;8.426;99.512;2022-12-07T10:54:16;100364.47;;;31.09;67.08
36798;BME280;22748;8.426;99.512;2022-12-07T10:57:11;100378.22;;;31.08;67.39
36798;BME280;22748;8.426;99.512;2022-12-07T11:00:07;100369.53;;;31.06;67.32
36798;BME280;22748;8.426;99.512;2022-12-07T11:03:15;100385.69;;;31.06;67.48
36798;BME280;22748;8.426;99.512;2022-12-07T11:05:53;100398.34;;;31.05;67.54
36798;BME280;22748;8.426;99.512;2022-12-07T11:08:43;100399.41;;;31.04;67.91
36798;BME280;22748;8.426;99.512;2022-12-07T11:11:19;100402.09;;;31.04;67.79
36798;BME280;22748;8.426;99.512;2022-12-07T11:14:03;100411.25;;;31.03;68.15
36798;BME280;22748;8.426;99.512;2022-12-07T11:16:49;100416.88;;;31.02;68.29
36798;BME280;22748;8.426;99.512;2022-12-07T11:19:42;100420.59;;;31.01;68.13
36798;BME280;22748;8.426;99.512;2022-12-07T11:22:25;100432.25;;;31.01;68.21
36798;BME280;22748;8.426;99.512;2022-12-07T11:25:10;100436.78;;;31.01;68.43
36798;BME280;22748;8.426;99.512;2022-12-07T11:27:52;100439.75;;;30.99;68.36
36798;BME280;22748;8.426;99.512;2022-12-07T11:30:36;100445.94;;;31.00;68.73
36798;BME280;22748;8.426;99.512;2022-12-07T11:33:17;100450.53;;;30.99;68.78
36798;BME280;22748;8.426;99.512;2022-12-07T11:36:02;100446.38;;;30.96;68.66
36798;BME280;22748;8.426;99.512;2022-12-07T11:38:43;100447.22;;;30.97;68.73
36798;BME280;22748;8.426;99.512;2022-12-07T11:41:18;100462.56;;;30.96;68.78
36798;BME280;22748;8.426;99.512;2022-12-07T11:43:56;100462.56;;;30.96;68.46
36798;BME280;22748;8.426;99.512;2022-12-07T11:46:42;100469.25;;;30.94;68.53
36798;BME280;22748;8.426;99.512;2022-12-07T11:49:21;100473.81;;;30.93;68.56
36798;BME280;22748;8.426;99.512;2022-12-07T11:52:01;100477.56;;;30.92;68.13
36798;BME280;22748;8.426;99.512;2022-12-07T11:54:36;100478.63;;;30.91;68.49
36798;BME280;22748;8.426;99.512;2022-12-07T11:57:17;100485.06;;;30.90;68.01
36798;BME280;22748;8.426;99.512;2022-12-07T11:59:52;100492.31;;;30.90;68.00
36798;BME280;22748;8.426;99.512;2022-12-07T12:02:28;100490.69;;;30.89;68.25
36798;BME280;22748;8.426;99.512;2022-12-07T12:05:13;100498.78;;;30.89;68.23
36798;BME280;22748;8.426;99.512;2022-12-07T12:07:49;100505.78;;;30.90;68.38
36798;BME280;22748;8.426;99.512;2022-12-07T12:10:32;100510.38;;;30.89;68.32
36798;BME280;22748;8.426;99.512;2022-12-07T12:16:21;100517.84;;;30.87;67.64
36798;BME280;22748;8.426;99.512;2022-12-07T12:19:04;100528.66;;;30.87;67.99
36798;BME280;22748;8.426;99.512;2022-12-07T12:21:42;100525.94;;;30.87;67.80
36798;BME280;22748;8.426;99.512;2022-12-07T12:24:17;100529.72;;;30.86;67.91
36798;BME280;22748;8.426;99.512;2022-12-07T12:26:51;100527.81;;;30.87;67.90
36798;BME280;22748;8.426;99.512;2022-12-07T12:29:30;100527.00;;;30.86;67.88
36798;BME280;22748;8.426;99.512;2022-12-07T12:32:11;100543.19;;;30.86;68.02
36798;BME280;22748;8.426;99.512;2022-12-07T12:34:59;100547.75;;;30.86;67.71
36798;BME280;22748;8.426;99.512;2022-12-07T12:37:46;100556.03;;;30.84;67.76
36798;BME280;22748;8.426;99.512;2022-12-07T12:40:42;100552.53;;;30.84;67.90
36798;BME280;22748;8.426;99.512;2022-12-07T12:49:36;100568.91;;;30.82;67.85
36798;BME280;22748;8.426;99.512;2022-12-07T12:55:19;100578.88;;;30.82;68.15
36798;BME280;22748;8.426;99.512;2022-12-07T13:03:54;100606.06;;;30.80;67.91
36798;BME280;22748;8.426;99.512;2022-12-07T13:06:35;100611.66;;;30.79;67.78
36798;BME280;22748;8.426;99.512;2022-12-07T13:09:20;100601.34;;;30.75;68.19
36798;BME280;22748;8.426;99.512;2022-12-07T13:12:01;100607.56;;;30.76;67.67
36798;BME280;22748;8.426;99.512;2022-12-07T13:14:53;100611.31;;;30.75;68.24
36798;BME280;22748;8.426;99.512;2022-12-07T13:20:45;100609.63;;;30.74;68.03
36798;BME280;22748;8.426;99.512;2022-12-07T13:23:29;100615.84;;;30.74;68.06
36798;BME280;22748;8.426;99.512;2022-12-07T13:26:16;100627.47;;;30.75;68.11
36798;BME280;22748;8.426;99.512;2022-12-07T13:29:04;100623.13;;;30.74;67.92
36798;BME280;22748;8.426;99.512;2022-12-07T13:31:38;100629.56;;;30.73;68.08
36798;BME280;22748;8.426;99.512;2022-12-07T13:34:32;100629.56;;;30.73;67.97
36798;BME280;22748;8.426;99.512;2022-12-07T13:37:12;100628.72;;;30.72;68.08
36798;BME280;22748;8.426;99.512;2022-12-07T13:39:49;100633.28;;;30.72;68.15
36798;BME280;22748;8.426;99.512;2022-12-07T13:42:26;100630.81;;;30.70;68.23
36798;BME280;22748;8.426;99.512;2022-12-07T13:44:59;100638.09;;;30.70;68.30
36798;BME280;22748;8.426;99.512;2022-12-07T13:47:34;100629.19;;;30.69;68.02
36798;BME280;22748;8.426;99.512;2022-12-07T13:50:24;100626.69;;;30.68;68.44
36798;BME280;22748;8.426;99.512;2022-12-07T13:52:57;100633.75;;;30.69;68.23
36798;BME280;22748;8.426;99.512;2022-12-07T13:55:29;100643.72;;;30.68;68.25
36798;BME280;22748;8.426;99.512;2022-12-07T13:58:00;100646.63;;;30.67;68.09
36798;BME280;22748;8.426;99.512;2022-12-07T14:00:33;100650.34;;;30.66;68.13